FLN weather

Hercílio Luz International Airport
Florianópolis, Santa Catarina, Brazil

Public forecast

Using degrees Celsius for public forecast. Weather courtesy of forecast.io.

METAR (pilot weather report)

Retrieved 2019/06/25 16:00 UTC (55 minutes ago):

SBFL 251600Z 35011KT CAVOK 28/15 Q1007

TAF (pilot weather forecast)

Retrieved 2019/06/25 12:00 UTC (5 hours ago):

TAF SBFL 250915Z 2512/2612 36012KT CAVOK TX29/2518Z TN12/2609Z BECMG 2519/2521 34005KT BECMG 2602/2604 26006KT 9999 FEW030 BECMG 2606/2608 20013KT BKN020 RMK PDW